sensor_id;sensor_type;location;lat;lon;timestamp;P1;durP1;ratioP1;P2;durP2;ratioP2
56680;SDS011;42558;52.388;13.390;2023-06-22T00:01:54;32.49;;;25.08;;
56680;SDS011;42558;52.388;13.390;2023-06-22T00:04:24;28.69;;;23.75;;
56680;SDS011;42558;52.388;13.390;2023-06-22T00:06:55;28.69;;;24.89;;
56680;SDS011;42558;52.388;13.390;2023-06-22T00:09:25;30.21;;;24.51;;
56680;SDS011;42558;52.388;13.390;2023-06-22T00:11:54;30.40;;;24.51;;
56680;SDS011;42558;52.388;13.390;2023-06-22T00:14:24;31.35;;;25.08;;
56680;SDS011;42558;52.388;13.390;2023-06-22T00:16:54;31.73;;;25.84;;
56680;SDS011;42558;52.388;13.390;2023-06-22T00:19:26;31.16;;;25.27;;
56680;SDS011;42558;52.388;13.390;2023-06-22T00:21:56;30.02;;;24.13;;
56680;SDS011;42558;52.388;13.390;2023-06-22T00:24:28;29.45;;;23.94;;
56680;SDS011;42558;52.388;13.390;2023-06-22T00:26:58;32.87;;;24.89;;
56680;SDS011;42558;52.388;13.390;2023-06-22T00:29:28;30.78;;;25.08;;
56680;SDS011;42558;52.388;13.390;2023-06-22T00:31:58;32.11;;;24.70;;
56680;SDS011;42558;52.388;13.390;2023-06-22T00:34:28;32.68;;;25.65;;
56680;SDS011;42558;52.388;13.390;2023-06-22T00:36:58;30.21;;;24.70;;
56680;SDS011;42558;52.388;13.390;2023-06-22T00:39:28;32.87;;;25.27;;
56680;SDS011;42558;52.388;13.390;2023-06-22T00:41:59;30.21;;;23.94;;
56680;SDS011;42558;52.388;13.390;2023-06-22T00:44:29;28.31;;;24.32;;
56680;SDS011;42558;52.388;13.390;2023-06-22T00:46:59;30.97;;;24.32;;
56680;SDS011;42558;52.388;13.390;2023-06-22T00:49:30;28.31;;;22.80;;
56680;SDS011;42558;52.388;13.390;2023-06-22T00:52:00;28.12;;;23.37;;
56680;SDS011;42558;52.388;13.390;2023-06-22T00:54:30;27.74;;;23.18;;
56680;SDS011;42558;52.388;13.390;2023-06-22T00:57:00;30.21;;;23.56;;
56680;SDS011;42558;52.388;13.390;2023-06-22T00:59:31;29.07;;;23.75;;
56680;SDS011;42558;52.388;13.390;2023-06-22T01:02:01;28.31;;;22.42;;
56680;SDS011;42558;52.388;13.390;2023-06-22T01:04:35;26.60;;;22.04;;
56680;SDS011;42558;52.388;13.390;2023-06-22T01:07:18;26.22;;;21.09;;
56680;SDS011;42558;52.388;13.390;2023-06-22T01:10:13;30.59;;;21.85;;
56680;SDS011;42558;52.388;13.390;2023-06-22T01:12:52;25.08;;;22.04;;
56680;SDS011;42558;52.388;13.390;2023-06-22T01:15:33;29.64;;;21.85;;
56680;SDS011;42558;52.388;13.390;2023-06-22T01:18:05;26.98;;;20.52;;
56680;SDS011;42558;52.388;13.390;2023-06-22T01:20:39;25.84;;;22.99;;
56680;SDS011;42558;52.388;13.390;2023-06-22T01:26:12;27.36;;;22.23;;
56680;SDS011;42558;52.388;13.390;2023-06-22T01:28:50;26.03;;;21.47;;
56680;SDS011;42558;52.388;13.390;2023-06-22T01:31:24;25.08;;;21.47;;
56680;SDS011;42558;52.388;13.390;2023-06-22T01:34:02;26.22;;;21.47;;
56680;SDS011;42558;52.388;13.390;2023-06-22T01:36:34;25.65;;;19.95;;
56680;SDS011;42558;52.388;13.390;2023-06-22T01:39:06;24.89;;;19.57;;
56680;SDS011;42558;52.388;13.390;2023-06-22T01:41:38;23.75;;;20.33;;
56680;SDS011;42558;52.388;13.390;2023-06-22T01:44:10;24.51;;;19.76;;
56680;SDS011;42558;52.388;13.390;2023-06-22T01:46:41;23.75;;;18.62;;
56680;SDS011;42558;52.388;13.390;2023-06-22T01:49:12;25.27;;;20.14;;
56680;SDS011;42558;52.388;13.390;2023-06-22T01:51:42;23.18;;;19.95;;
56680;SDS011;42558;52.388;13.390;2023-06-22T01:54:13;26.41;;;20.14;;
56680;SDS011;42558;52.388;13.390;2023-06-22T01:56:43;24.89;;;20.52;;
56680;SDS011;42558;52.388;13.390;2023-06-22T01:59:30;23.75;;;19.95;;
56680;SDS011;42558;52.388;13.390;2023-06-22T02:02:07;22.99;;;19.38;;
56680;SDS011;42558;52.388;13.390;2023-06-22T02:04:56;26.22;;;21.09;;
56680;SDS011;42558;52.388;13.390;2023-06-22T02:07:42;24.70;;;21.85;;
56680;SDS011;42558;52.388;13.390;2023-06-22T02:10:16;24.32;;;21.47;;
56680;SDS011;42558;52.388;13.390;2023-06-22T02:12:48;28.12;;;21.66;;
56680;SDS011;42558;52.388;13.390;2023-06-22T02:15:19;27.17;;;21.28;;
56680;SDS011;42558;52.388;13.390;2023-06-22T02:17:48;23.75;;;21.28;;
56680;SDS011;42558;52.388;13.390;2023-06-22T02:20:15;29.64;;;22.04;;
56680;SDS011;42558;52.388;13.390;2023-06-22T02:22:45;30.40;;;22.99;;
56680;SDS011;42558;52.388;13.390;2023-06-22T02:25:15;28.69;;;22.80;;
56680;SDS011;42558;52.388;13.390;2023-06-22T02:27:45;27.93;;;22.80;;
56680;SDS011;42558;52.388;13.390;2023-06-22T02:30:15;24.51;;;21.85;;
56680;SDS011;42558;52.388;13.390;2023-06-22T02:32:45;28.88;;;22.04;;
56680;SDS011;42558;52.388;13.390;2023-06-22T02:35:15;27.17;;;23.56;;
56680;SDS011;42558;52.388;13.390;2023-06-22T02:37:45;26.41;;;23.18;;
56680;SDS011;42558;52.388;13.390;2023-06-22T02:40:16;26.60;;;22.42;;
56680;SDS011;42558;52.388;13.390;2023-06-22T02:42:46;28.88;;;23.37;;
56680;SDS011;42558;52.388;13.390;2023-06-22T02:45:16;28.31;;;24.51;;
56680;SDS011;42558;52.388;13.390;2023-06-22T02:47:46;25.08;;;22.42;;
56680;SDS011;42558;52.388;13.390;2023-06-22T02:50:17;35.34;;;26.98;;
56680;SDS011;42558;52.388;13.390;2023-06-22T02:52:47;28.50;;;23.94;;
56680;SDS011;42558;52.388;13.390;2023-06-22T02:55:17;30.59;;;25.65;;
56680;SDS011;42558;52.388;13.390;2023-06-22T02:57:47;33.25;;;25.27;;
56680;SDS011;42558;52.388;13.390;2023-06-22T03:00:22;31.73;;;26.60;;
56680;SDS011;42558;52.388;13.390;2023-06-22T03:02:51;38.38;;;27.93;;
56680;SDS011;42558;52.388;13.390;2023-06-22T03:05:21;35.15;;;27.74;;
56680;SDS011;42558;52.388;13.390;2023-06-22T03:07:51;29.45;;;26.03;;
56680;SDS011;42558;52.388;13.390;2023-06-22T03:10:21;27.74;;;24.89;;
56680;SDS011;42558;52.388;13.390;2023-06-22T03:12:51;28.31;;;25.27;;
56680;SDS011;42558;52.388;13.390;2023-06-22T03:15:21;32.11;;;25.84;;
56680;SDS011;42558;52.388;13.390;2023-06-22T03:17:51;30.97;;;26.60;;
56680;SDS011;42558;52.388;13.390;2023-06-22T03:20:22;29.64;;;26.22;;
56680;SDS011;42558;52.388;13.390;2023-06-22T03:22:52;31.92;;;26.98;;
56680;SDS011;42558;52.388;13.390;2023-06-22T03:25:22;33.44;;;27.17;;
56680;SDS011;42558;52.388;13.390;2023-06-22T03:27:52;32.30;;;27.74;;
56680;SDS011;42558;52.388;13.390;2023-06-22T03:30:22;30.97;;;27.36;;
56680;SDS011;42558;52.388;13.390;2023-06-22T03:32:52;34.01;;;28.12;;
56680;SDS011;42558;52.388;13.390;2023-06-22T03:35:22;33.06;;;29.07;;
56680;SDS011;42558;52.388;13.390;2023-06-22T03:37:52;32.30;;;28.50;;
56680;SDS011;42558;52.388;13.390;2023-06-22T03:40:23;35.53;;;27.93;;
56680;SDS011;42558;52.388;13.390;2023-06-22T03:42:53;31.54;;;27.36;;
56680;SDS011;42558;52.388;13.390;2023-06-22T03:45:22;32.30;;;28.12;;
56680;SDS011;42558;52.388;13.390;2023-06-22T03:47:52;36.48;;;29.83;;
56680;SDS011;42558;52.388;13.390;2023-06-22T03:50:23;37.43;;;29.64;;
56680;SDS011;42558;52.388;13.390;2023-06-22T03:52:52;33.25;;;28.31;;
56680;SDS011;42558;52.388;13.390;2023-06-22T03:55:22;33.82;;;28.12;;
56680;SDS011;42558;52.388;13.390;2023-06-22T03:57:52;34.39;;;29.64;;
56680;SDS011;42558;52.388;13.390;2023-06-22T04:00:24;35.72;;;27.74;;
56680;SDS011;42558;52.388;13.390;2023-06-22T04:02:54;34.77;;;27.36;;
56680;SDS011;42558;52.388;13.390;2023-06-22T04:05:24;37.62;;;26.79;;
56680;SDS011;42558;52.388;13.390;2023-06-22T04:07:54;34.58;;;29.26;;
56680;SDS011;42558;52.388;13.390;2023-06-22T04:10:24;32.68;;;27.74;;
56680;SDS011;42558;52.388;13.390;2023-06-22T04:12:54;33.63;;;28.31;;
56680;SDS011;42558;52.388;13.390;2023-06-22T04:15:24;32.87;;;28.50;;
56680;SDS011;42558;52.388;13.390;2023-06-22T04:17:54;34.01;;;27.93;;
56680;SDS011;42558;52.388;13.390;2023-06-22T04:20:25;32.49;;;25.84;;
56680;SDS011;42558;52.388;13.390;2023-06-22T04:22:58;33.63;;;27.55;;
56680;SDS011;42558;52.388;13.390;2023-06-22T04:25:28;35.34;;;27.93;;
56680;SDS011;42558;52.388;13.390;2023-06-22T04:27:58;38.00;;;27.55;;
56680;SDS011;42558;52.388;13.390;2023-06-22T04:30:28;30.59;;;27.36;;
56680;SDS011;42558;52.388;13.390;2023-06-22T04:33:01;34.96;;;29.45;;
56680;SDS011;42558;52.388;13.390;2023-06-22T04:35:31;33.44;;;27.17;;
56680;SDS011;42558;52.388;13.390;2023-06-22T04:38:01;32.68;;;27.74;;
56680;SDS011;42558;52.388;13.390;2023-06-22T04:40:33;30.40;;;25.46;;
56680;SDS011;42558;52.388;13.390;2023-06-22T04:43:03;35.91;;;28.31;;
56680;SDS011;42558;52.388;13.390;2023-06-22T04:45:35;29.83;;;26.79;;
56680;SDS011;42558;52.388;13.390;2023-06-22T04:48:08;29.83;;;26.03;;
56680;SDS011;42558;52.388;13.390;2023-06-22T04:50:39;32.49;;;25.84;;
56680;SDS011;42558;52.388;13.390;2023-06-22T04:53:09;28.50;;;24.89;;
56680;SDS011;42558;52.388;13.390;2023-06-22T04:55:42;26.98;;;23.94;;
56680;SDS011;42558;52.388;13.390;2023-06-22T04:58:15;30.78;;;25.08;;
56680;SDS011;42558;52.388;13.390;2023-06-22T05:00:45;25.27;;;22.23;;
56680;SDS011;42558;52.388;13.390;2023-06-22T05:03:17;28.31;;;23.75;;
56680;SDS011;42558;52.388;13.390;2023-06-22T05:05:49;28.50;;;23.18;;
56680;SDS011;42558;52.388;13.390;2023-06-22T05:08:19;30.40;;;22.80;;
56680;SDS011;42558;52.388;13.390;2023-06-22T05:10:48;32.11;;;24.13;;
56680;SDS011;42558;52.388;13.390;2023-06-22T05:13:34;26.41;;;22.61;;
56680;SDS011;42558;52.388;13.390;2023-06-22T05:16:04;26.03;;;22.80;;
56680;SDS011;42558;52.388;13.390;2023-06-22T05:18:35;31.35;;;23.75;;
56680;SDS011;42558;52.388;13.390;2023-06-22T05:21:06;34.96;;;21.85;;
56680;SDS011;42558;52.388;13.390;2023-06-22T05:23:36;24.32;;;21.66;;
56680;SDS011;42558;52.388;13.390;2023-06-22T05:26:06;27.36;;;21.09;;
56680;SDS011;42558;52.388;13.390;2023-06-22T05:28:39;23.56;;;20.52;;
56680;SDS011;42558;52.388;13.390;2023-06-22T05:31:08;21.28;;;18.43;;
56680;SDS011;42558;52.388;13.390;2023-06-22T05:33:39;22.99;;;19.38;;
56680;SDS011;42558;52.388;13.390;2023-06-22T05:36:09;21.66;;;18.05;;
56680;SDS011;42558;52.388;13.390;2023-06-22T05:38:40;21.09;;;18.62;;
56680;SDS011;42558;52.388;13.390;2023-06-22T05:41:10;18.81;;;16.72;;
56680;SDS011;42558;52.388;13.390;2023-06-22T05:43:48;22.42;;;17.48;;
56680;SDS011;42558;52.388;13.390;2023-06-22T05:46:19;28.69;;;17.10;;
56680;SDS011;42558;52.388;13.390;2023-06-22T05:48:49;18.24;;;15.20;;
56680;SDS011;42558;52.388;13.390;2023-06-22T05:51:19;20.71;;;16.34;;
56680;SDS011;42558;52.388;13.390;2023-06-22T05:53:49;20.52;;;16.72;;
56680;SDS011;42558;52.388;13.390;2023-06-22T05:56:19;22.80;;;17.48;;
56680;SDS011;42558;52.388;13.390;2023-06-22T05:58:49;18.24;;;15.01;;
56680;SDS011;42558;52.388;13.390;2023-06-22T06:01:19;18.05;;;14.82;;
56680;SDS011;42558;52.388;13.390;2023-06-22T06:03:49;22.80;;;17.29;;
56680;SDS011;42558;52.388;13.390;2023-06-22T06:06:22;19.57;;;15.77;;
56680;SDS011;42558;52.388;13.390;2023-06-22T06:08:58;20.71;;;17.10;;
56680;SDS011;42558;52.388;13.390;2023-06-22T06:11:29;18.62;;;15.58;;
56680;SDS011;42558;52.388;13.390;2023-06-22T06:13:59;20.14;;;15.96;;
56680;SDS011;42558;52.388;13.390;2023-06-22T06:16:29;20.90;;;15.96;;
56680;SDS011;42558;52.388;13.390;2023-06-22T06:18:59;18.81;;;14.63;;
56680;SDS011;42558;52.388;13.390;2023-06-22T06:21:29;18.62;;;15.20;;
56680;SDS011;42558;52.388;13.390;2023-06-22T06:24:00;18.62;;;14.06;;
56680;SDS011;42558;52.388;13.390;2023-06-22T06:26:30;15.77;;;13.87;;
56680;SDS011;42558;52.388;13.390;2023-06-22T06:29:01;15.58;;;13.30;;
56680;SDS011;42558;52.388;13.390;2023-06-22T06:31:30;16.34;;;12.92;;
56680;SDS011;42558;52.388;13.390;2023-06-22T06:34:00;18.43;;;13.30;;
56680;SDS011;42558;52.388;13.390;2023-06-22T06:36:30;15.20;;;12.54;;
56680;SDS011;42558;52.388;13.390;2023-06-22T06:38:58;18.05;;;13.87;;
56680;SDS011;42558;52.388;13.390;2023-06-22T06:41:27;15.96;;;13.30;;
56680;SDS011;42558;52.388;13.390;2023-06-22T06:43:55;14.63;;;12.54;;
56680;SDS011;42558;52.388;13.390;2023-06-22T06:46:24;14.82;;;12.35;;
56680;SDS011;42558;52.388;13.390;2023-06-22T06:48:52;17.10;;;12.54;;
56680;SDS011;42558;52.388;13.390;2023-06-22T06:51:22;16.91;;;12.73;;
56680;SDS011;42558;52.388;13.390;2023-06-22T06:53:52;13.49;;;11.97;;
56680;SDS011;42558;52.388;13.390;2023-06-22T06:56:22;13.87;;;10.83;;
56680;SDS011;42558;52.388;13.390;2023-06-22T06:58:52;16.34;;;10.83;;
56680;SDS011;42558;52.388;13.390;2023-06-22T07:01:22;12.73;;;10.45;;
56680;SDS011;42558;52.388;13.390;2023-06-22T07:03:52;15.20;;;10.26;;
56680;SDS011;42558;52.388;13.390;2023-06-22T07:06:23;15.96;;;10.83;;
56680;SDS011;42558;52.388;13.390;2023-06-22T07:08:55;16.53;;;10.83;;
56680;SDS011;42558;52.388;13.390;2023-06-22T07:11:23;16.91;;;11.59;;
56680;SDS011;42558;52.388;13.390;2023-06-22T07:13:53;17.86;;;10.64;;
56680;SDS011;42558;52.388;13.390;2023-06-22T07:16:23;12.92;;;10.64;;
56680;SDS011;42558;52.388;13.390;2023-06-22T07:18:54;15.39;;;10.45;;
56680;SDS011;42558;52.388;13.390;2023-06-22T07:21:24;17.29;;;10.83;;
56680;SDS011;42558;52.388;13.390;2023-06-22T07:23:54;11.78;;;10.07;;
56680;SDS011;42558;52.388;13.390;2023-06-22T07:26:24;14.63;;;10.07;;
56680;SDS011;42558;52.388;13.390;2023-06-22T07:28:54;14.25;;;9.50;;
56680;SDS011;42558;52.388;13.390;2023-06-22T07:31:25;13.11;;;10.45;;
56680;SDS011;42558;52.388;13.390;2023-06-22T07:33:55;16.15;;;10.26;;
56680;SDS011;42558;52.388;13.390;2023-06-22T07:36:24;24.13;;;12.35;;
56680;SDS011;42558;52.388;13.390;2023-06-22T07:38:54;31.73;;;12.35;;
56680;SDS011;42558;52.388;13.390;2023-06-22T07:41:24;15.77;;;10.07;;
56680;SDS011;42558;52.388;13.390;2023-06-22T07:43:54;13.68;;;9.69;;
56680;SDS011;42558;52.388;13.390;2023-06-22T07:46:24;15.77;;;9.50;;
56680;SDS011;42558;52.388;13.390;2023-06-22T07:48:54;11.97;;;8.93;;
56680;SDS011;42558;52.388;13.390;2023-06-22T07:51:25;13.87;;;9.69;;
56680;SDS011;42558;52.388;13.390;2023-06-22T07:53:55;13.87;;;9.31;;
56680;SDS011;42558;52.388;13.390;2023-06-22T07:56:25;13.30;;;7.98;;
56680;SDS011;42558;52.388;13.390;2023-06-22T07:58:55;11.78;;;8.17;;
56680;SDS011;42558;52.388;13.390;2023-06-22T08:01:26;11.97;;;8.93;;
56680;SDS011;42558;52.388;13.390;2023-06-22T08:03:55;10.83;;;7.79;;
56680;SDS011;42558;52.388;13.390;2023-06-22T08:06:23;10.07;;;7.60;;
56680;SDS011;42558;52.388;13.390;2023-06-22T08:08:52;10.83;;;7.22;;
56680;SDS011;42558;52.388;13.390;2023-06-22T08:11:23;11.59;;;7.98;;
56680;SDS011;42558;52.388;13.390;2023-06-22T08:13:55;11.78;;;7.41;;
56680;SDS011;42558;52.388;13.390;2023-06-22T08:16:25;11.59;;;7.98;;
56680;SDS011;42558;52.388;13.390;2023-06-22T08:18:55;11.59;;;8.17;;
56680;SDS011;42558;52.388;13.390;2023-06-22T08:21:25;11.59;;;7.41;;
56680;SDS011;42558;52.388;13.390;2023-06-22T08:23:56;9.31;;;7.03;;
56680;SDS011;42558;52.388;13.390;2023-06-22T08:26:26;10.83;;;6.46;;
56680;SDS011;42558;52.388;13.390;2023-06-22T08:28:55;11.40;;;6.46;;
56680;SDS011;42558;52.388;13.390;2023-06-22T08:31:25;10.83;;;6.65;;
56680;SDS011;42558;52.388;13.390;2023-06-22T08:33:56;11.78;;;6.84;;
56680;SDS011;42558;52.388;13.390;2023-06-22T08:36:26;8.55;;;6.46;;
56680;SDS011;42558;52.388;13.390;2023-06-22T08:38:58;10.83;;;7.03;;
56680;SDS011;42558;52.388;13.390;2023-06-22T08:41:32;9.69;;;6.65;;
56680;SDS011;42558;52.388;13.390;2023-06-22T08:44:03;13.30;;;7.22;;
56680;SDS011;42558;52.388;13.390;2023-06-22T08:46:33;26.79;;;9.12;;
56680;SDS011;42558;52.388;13.390;2023-06-22T08:49:03;27.93;;;8.55;;
56680;SDS011;42558;52.388;13.390;2023-06-22T08:51:33;13.49;;;7.98;;
56680;SDS011;42558;52.388;13.390;2023-06-22T08:54:03;12.73;;;7.60;;
56680;SDS011;42558;52.388;13.390;2023-06-22T08:56:34;11.59;;;7.79;;
56680;SDS011;42558;52.388;13.390;2023-06-22T08:59:04;11.78;;;7.98;;
56680;SDS011;42558;52.388;13.390;2023-06-22T09:01:36;13.11;;;7.98;;
56680;SDS011;42558;52.388;13.390;2023-06-22T09:04:05;12.92;;;8.93;;
56680;SDS011;42558;52.388;13.390;2023-06-22T09:06:39;11.97;;;7.60;;
56680;SDS011;42558;52.388;13.390;2023-06-22T09:09:16;10.07;;;7.41;;
56680;SDS011;42558;52.388;13.390;2023-06-22T09:11:44;14.63;;;8.17;;
56680;SDS011;42558;52.388;13.390;2023-06-22T09:14:14;11.40;;;6.65;;
56680;SDS011;42558;52.388;13.390;2023-06-22T09:16:44;10.45;;;7.03;;
56680;SDS011;42558;52.388;13.390;2023-06-22T09:19:14;13.11;;;7.98;;
56680;SDS011;42558;52.388;13.390;2023-06-22T09:21:44;10.64;;;7.79;;
56680;SDS011;42558;52.388;13.390;2023-06-22T09:24:14;8.55;;;6.84;;
56680;SDS011;42558;52.388;13.390;2023-06-22T09:26:44;11.78;;;7.60;;
56680;SDS011;42558;52.388;13.390;2023-06-22T09:29:14;11.21;;;6.84;;
56680;SDS011;42558;52.388;13.390;2023-06-22T09:31:44;9.12;;;6.84;;
56680;SDS011;42558;52.388;13.390;2023-06-22T09:34:13;10.07;;;7.03;;
56680;SDS011;42558;52.388;13.390;2023-06-22T09:36:43;11.02;;;6.84;;
56680;SDS011;42558;52.388;13.390;2023-06-22T09:39:12;10.26;;;6.65;;
56680;SDS011;42558;52.388;13.390;2023-06-22T09:41:44;9.12;;;6.46;;
56680;SDS011;42558;52.388;13.390;2023-06-22T09:44:14;11.02;;;7.03;;
56680;SDS011;42558;52.388;13.390;2023-06-22T09:46:44;10.26;;;6.08;;
56680;SDS011;42558;52.388;13.390;2023-06-22T09:49:14;9.69;;;6.46;;
56680;SDS011;42558;52.388;13.390;2023-06-22T09:51:44;9.69;;;6.08;;
56680;SDS011;42558;52.388;13.390;2023-06-22T09:54:14;9.88;;;6.27;;
56680;SDS011;42558;52.388;13.390;2023-06-22T09:56:44;10.45;;;6.65;;
56680;SDS011;42558;52.388;13.390;2023-06-22T09:59:14;10.45;;;7.22;;
56680;SDS011;42558;52.388;13.390;2023-06-22T10:01:47;10.83;;;6.65;;
56680;SDS011;42558;52.388;13.390;2023-06-22T10:04:17;10.83;;;6.08;;
56680;SDS011;42558;52.388;13.390;2023-06-22T10:06:48;9.69;;;6.65;;
56680;SDS011;42558;52.388;13.390;2023-06-22T10:09:17;9.88;;;6.84;;
56680;SDS011;42558;52.388;13.390;2023-06-22T10:11:48;11.59;;;6.84;;
56680;SDS011;42558;52.388;13.390;2023-06-22T10:14:18;9.50;;;6.65;;
56680;SDS011;42558;52.388;13.390;2023-06-22T10:16:48;10.26;;;7.03;;
56680;SDS011;42558;52.388;13.390;2023-06-22T10:19:18;10.83;;;7.60;;
56680;SDS011;42558;52.388;13.390;2023-06-22T10:21:48;10.64;;;7.22;;
56680;SDS011;42558;52.388;13.390;2023-06-22T10:24:18;12.54;;;7.60;;
56680;SDS011;42558;52.388;13.390;2023-06-22T10:26:48;11.78;;;6.84;;
56680;SDS011;42558;52.388;13.390;2023-06-22T10:29:15;11.02;;;7.22;;
56680;SDS011;42558;52.388;13.390;2023-06-22T10:31:45;11.02;;;7.22;;
56680;SDS011;42558;52.388;13.390;2023-06-22T10:34:14;8.93;;;6.08;;
56680;SDS011;42558;52.388;13.390;2023-06-22T10:36:43;10.26;;;7.03;;
56680;SDS011;42558;52.388;13.390;2023-06-22T10:39:15;8.36;;;6.27;;
56680;SDS011;42558;52.388;13.390;2023-06-22T10:41:45;9.69;;;6.65;;
56680;SDS011;42558;52.388;13.390;2023-06-22T10:44:15;9.12;;;6.08;;
56680;SDS011;42558;52.388;13.390;2023-06-22T10:46:47;11.78;;;7.03;;
56680;SDS011;42558;52.388;13.390;2023-06-22T10:49:17;11.02;;;6.08;;
56680;SDS011;42558;52.388;13.390;2023-06-22T10:51:47;8.93;;;6.65;;
56680;SDS011;42558;52.388;13.390;2023-06-22T10:54:17;9.88;;;7.03;;
56680;SDS011;42558;52.388;13.390;2023-06-22T10:56:48;9.88;;;6.65;;
56680;SDS011;42558;52.388;13.390;2023-06-22T10:59:17;10.64;;;6.46;;
56680;SDS011;42558;52.388;13.390;2023-06-22T11:01:45;15.96;;;7.41;;
56680;SDS011;42558;52.388;13.390;2023-06-22T11:04:14;12.35;;;7.22;;
56680;SDS011;42558;52.388;13.390;2023-06-22T11:06:43;14.06;;;7.79;;
56680;SDS011;42558;52.388;13.390;2023-06-22T11:09:11;11.40;;;7.41;;
56680;SDS011;42558;52.388;13.390;2023-06-22T11:11:43;11.21;;;7.22;;
56680;SDS011;42558;52.388;13.390;2023-06-22T11:14:11;11.59;;;7.60;;
56680;SDS011;42558;52.388;13.390;2023-06-22T11:16:40;10.45;;;7.60;;
56680;SDS011;42558;52.388;13.390;2023-06-22T11:19:09;9.50;;;7.79;;
56680;SDS011;42558;52.388;13.390;2023-06-22T11:21:37;10.64;;;8.36;;
56680;SDS011;42558;52.388;13.390;2023-06-22T11:24:05;11.97;;;7.79;;
56680;SDS011;42558;52.388;13.390;2023-06-22T11:26:34;11.59;;;7.79;;
56680;SDS011;42558;52.388;13.390;2023-06-22T11:29:02;11.78;;;6.84;;
56680;SDS011;42558;52.388;13.390;2023-06-22T11:31:35;20.71;;;8.93;;
56680;SDS011;42558;52.388;13.390;2023-06-22T11:34:06;11.21;;;7.22;;
56680;SDS011;42558;52.388;13.390;2023-06-22T11:36:36;13.11;;;7.79;;
56680;SDS011;42558;52.388;13.390;2023-06-22T11:39:08;13.49;;;8.17;;
56680;SDS011;42558;52.388;13.390;2023-06-22T11:41:39;11.78;;;7.41;;
56680;SDS011;42558;52.388;13.390;2023-06-22T11:44:09;13.68;;;7.79;;
56680;SDS011;42558;52.388;13.390;2023-06-22T11:46:39;12.35;;;8.17;;
56680;SDS011;42558;52.388;13.390;2023-06-22T11:49:08;11.21;;;7.79;;
56680;SDS011;42558;52.388;13.390;2023-06-22T11:51:36;14.25;;;8.36;;
56680;SDS011;42558;52.388;13.390;2023-06-22T11:54:04;11.78;;;7.60;;
56680;SDS011;42558;52.388;13.390;2023-06-22T11:56:33;11.02;;;7.03;;
56680;SDS011;42558;52.388;13.390;2023-06-22T11:59:01;17.86;;;9.12;;
56680;SDS011;42558;52.388;13.390;2023-06-22T12:01:29;9.50;;;7.79;;
56680;SDS011;42558;52.388;13.390;2023-06-22T12:03:58;11.97;;;7.22;;
56680;SDS011;42558;52.388;13.390;2023-06-22T12:06:26;11.02;;;7.98;;
56680;SDS011;42558;52.388;13.390;2023-06-22T12:08:55;10.07;;;7.41;;
56680;SDS011;42558;52.388;13.390;2023-06-22T12:11:23;10.26;;;7.03;;
56680;SDS011;42558;52.388;13.390;2023-06-22T12:13:52;16.91;;;8.36;;
56680;SDS011;42558;52.388;13.390;2023-06-22T12:16:20;11.97;;;7.79;;
56680;SDS011;42558;52.388;13.390;2023-06-22T12:18:48;12.35;;;8.17;;
56680;SDS011;42558;52.388;13.390;2023-06-22T12:21:17;10.83;;;7.22;;
56680;SDS011;42558;52.388;13.390;2023-06-22T12:23:45;19.38;;;9.12;;
56680;SDS011;42558;52.388;13.390;2023-06-22T12:26:14;27.36;;;9.69;;
56680;SDS011;42558;52.388;13.390;2023-06-22T12:28:44;12.35;;;7.79;;
56680;SDS011;42558;52.388;13.390;2023-06-22T12:31:11;9.88;;;7.79;;
56680;SDS011;42558;52.388;13.390;2023-06-22T12:33:40;11.21;;;8.17;;
56680;SDS011;42558;52.388;13.390;2023-06-22T12:36:08;23.56;;;9.12;;
56680;SDS011;42558;52.388;13.390;2023-06-22T12:38:37;12.16;;;7.98;;
56680;SDS011;42558;52.388;13.390;2023-06-22T12:41:05;9.50;;;7.41;;
56680;SDS011;42558;52.388;13.390;2023-06-22T12:43:33;9.50;;;8.36;;
56680;SDS011;42558;52.388;13.390;2023-06-22T12:46:03;10.07;;;7.98;;
56680;SDS011;42558;52.388;13.390;2023-06-22T12:48:32;13.68;;;9.12;;
56680;SDS011;42558;52.388;13.390;2023-06-22T12:51:00;12.35;;;8.55;;
56680;SDS011;42558;52.388;13.390;2023-06-22T12:53:28;12.54;;;8.36;;
56680;SDS011;42558;52.388;13.390;2023-06-22T12:55:57;14.44;;;9.31;;
56680;SDS011;42558;52.388;13.390;2023-06-22T12:58:25;10.45;;;8.36;;
56680;SDS011;42558;52.388;13.390;2023-06-22T13:00:54;12.54;;;8.93;;
56680;SDS011;42558;52.388;13.390;2023-06-22T13:03:22;12.35;;;8.93;;
56680;SDS011;42558;52.388;13.390;2023-06-22T13:05:54;15.01;;;8.93;;
56680;SDS011;42558;52.388;13.390;2023-06-22T13:08:25;10.64;;;8.17;;
56680;SDS011;42558;52.388;13.390;2023-06-22T13:11:15;10.83;;;7.79;;
56680;SDS011;42558;52.388;13.390;2023-06-22T13:13:45;10.26;;;7.03;;
56680;SDS011;42558;52.388;13.390;2023-06-22T13:16:15;10.26;;;7.98;;
56680;SDS011;42558;52.388;13.390;2023-06-22T13:18:45;11.02;;;8.36;;
56680;SDS011;42558;52.388;13.390;2023-06-22T13:21:15;12.54;;;8.93;;
56680;SDS011;42558;52.388;13.390;2023-06-22T13:23:45;14.63;;;9.69;;
56680;SDS011;42558;52.388;13.390;2023-06-22T13:26:15;14.25;;;9.12;;
56680;SDS011;42558;52.388;13.390;2023-06-22T13:28:45;12.35;;;10.07;;
56680;SDS011;42558;52.388;13.390;2023-06-22T13:31:15;11.97;;;8.74;;
56680;SDS011;42558;52.388;13.390;2023-06-22T13:33:45;12.73;;;9.12;;
56680;SDS011;42558;52.388;13.390;2023-06-22T13:36:17;12.35;;;8.93;;
56680;SDS011;42558;52.388;13.390;2023-06-22T13:38:47;12.92;;;8.74;;
56680;SDS011;42558;52.388;13.390;2023-06-22T13:41:17;13.30;;;9.50;;
56680;SDS011;42558;52.388;13.390;2023-06-22T13:43:47;13.49;;;8.93;;
56680;SDS011;42558;52.388;13.390;2023-06-22T13:46:17;10.83;;;9.31;;
56680;SDS011;42558;52.388;13.390;2023-06-22T13:48:47;11.40;;;9.88;;
56680;SDS011;42558;52.388;13.390;2023-06-22T13:51:17;13.49;;;8.93;;
56680;SDS011;42558;52.388;13.390;2023-06-22T13:53:47;12.92;;;10.26;;
56680;SDS011;42558;52.388;13.390;2023-06-22T13:56:17;11.59;;;8.74;;
56680;SDS011;42558;52.388;13.390;2023-06-22T13:58:47;10.26;;;8.74;;
56680;SDS011;42558;52.388;13.390;2023-06-22T14:01:17;11.59;;;8.93;;
56680;SDS011;42558;52.388;13.390;2023-06-22T14:03:48;12.73;;;9.88;;
56680;SDS011;42558;52.388;13.390;2023-06-22T14:06:18;12.73;;;9.88;;
56680;SDS011;42558;52.388;13.390;2023-06-22T14:08:47;11.59;;;9.50;;
56680;SDS011;42558;52.388;13.390;2023-06-22T14:11:17;14.44;;;9.69;;
56680;SDS011;42558;52.388;13.390;2023-06-22T14:13:47;14.63;;;8.93;;
56680;SDS011;42558;52.388;13.390;2023-06-22T14:16:15;12.73;;;9.69;;
56680;SDS011;42558;52.388;13.390;2023-06-22T14:18:44;11.97;;;9.31;;
56680;SDS011;42558;52.388;13.390;2023-06-22T14:21:14;11.97;;;9.12;;
56680;SDS011;42558;52.388;13.390;2023-06-22T14:23:44;13.11;;;9.12;;
56680;SDS011;42558;52.388;13.390;2023-06-22T14:26:18;12.16;;;10.26;;
56680;SDS011;42558;52.388;13.390;2023-06-22T14:28:49;10.83;;;9.12;;
56680;SDS011;42558;52.388;13.390;2023-06-22T14:31:22;13.30;;;9.31;;
56680;SDS011;42558;52.388;13.390;2023-06-22T14:33:52;13.11;;;10.26;;
56680;SDS011;42558;52.388;13.390;2023-06-22T14:36:22;13.30;;;9.69;;
56680;SDS011;42558;52.388;13.390;2023-06-22T14:38:52;10.83;;;8.93;;